Terminal Aerodrome Forecast
Issued by NWS Pocatello, ID

Home | Current Version | Previous Version | Text Only | Print | Product List | Glossary On
Versions: 1 2 3 4 5 6 7 8 9 10 11 12 13
000
FTUS45 KPIH 290500
TAFBYI
TAF
KBYI 290520Z 2906/3006 VRB04KT P6SM SCT060 BKN110 OVC140
     FM291800 19008KT P6SM VCTS SCT080CB BKN160
     FM300000 VRB05KT P6SM VCSH BKN100 BKN140=

USA.gov is the U.S. government's official web portal to all federal, state and local government web resources and services.